sensor_id;sensor_type;location;lat;lon;timestamp;temperature;humidity
5930;DHT22;2990;48.746;9.236;2023-05-23T00:00:56;17.20;1.00
5930;DHT22;2990;48.746;9.236;2023-05-23T00:03:23;17.20;1.00
5930;DHT22;2990;48.746;9.236;2023-05-23T00:05:49;17.20;1.00
5930;DHT22;2990;48.746;9.236;2023-05-23T00:08:15;17.30;1.00
5930;DHT22;2990;48.746;9.236;2023-05-23T00:10:41;17.10;1.00
5930;DHT22;2990;48.746;9.236;2023-05-23T00:13:07;17.00;1.00
5930;DHT22;2990;48.746;9.236;2023-05-23T00:15:34;17.00;1.00
5930;DHT22;2990;48.746;9.236;2023-05-23T00:18:01;17.00;1.00
5930;DHT22;2990;48.746;9.236;2023-05-23T00:20:27;17.10;1.00
5930;DHT22;2990;48.746;9.236;2023-05-23T00:22:53;16.80;1.00
5930;DHT22;2990;48.746;9.236;2023-05-23T00:25:23;16.90;1.00
5930;DHT22;2990;48.746;9.236;2023-05-23T00:27:49;17.00;1.00
5930;DHT22;2990;48.746;9.236;2023-05-23T00:30:15;17.10;1.00
5930;DHT22;2990;48.746;9.236;2023-05-23T00:32:40;16.90;1.00
5930;DHT22;2990;48.746;9.236;2023-05-23T00:35:07;16.80;1.00
5930;DHT22;2990;48.746;9.236;2023-05-23T00:37:32;16.80;1.00
5930;DHT22;2990;48.746;9.236;2023-05-23T00:39:58;16.80;1.00
5930;DHT22;2990;48.746;9.236;2023-05-23T00:42:24;16.80;1.00
5930;DHT22;2990;48.746;9.236;2023-05-23T00:44:50;16.90;1.00
5930;DHT22;2990;48.746;9.236;2023-05-23T00:47:16;16.80;1.00
5930;DHT22;2990;48.746;9.236;2023-05-23T00:49:42;16.80;1.00
5930;DHT22;2990;48.746;9.236;2023-05-23T00:52:08;16.70;1.00
5930;DHT22;2990;48.746;9.236;2023-05-23T00:54:35;16.80;1.00
5930;DHT22;2990;48.746;9.236;2023-05-23T00:57:01;16.80;1.00
5930;DHT22;2990;48.746;9.236;2023-05-23T00:59:29;16.80;1.00
5930;DHT22;2990;48.746;9.236;2023-05-23T01:01:56;16.80;1.00
5930;DHT22;2990;48.746;9.236;2023-05-23T01:04:23;16.70;1.00
5930;DHT22;2990;48.746;9.236;2023-05-23T01:06:53;16.80;1.00
5930;DHT22;2990;48.746;9.236;2023-05-23T01:09:19;16.70;1.00
5930;DHT22;2990;48.746;9.236;2023-05-23T01:15:02;16.90;1.00
5930;DHT22;2990;48.746;9.236;2023-05-23T01:17:38;16.80;1.00
5930;DHT22;2990;48.746;9.236;2023-05-23T01:20:11;16.70;1.00
5930;DHT22;2990;48.746;9.236;2023-05-23T01:28:15;16.70;1.00
5930;DHT22;2990;48.746;9.236;2023-05-23T01:30:43;16.70;1.00
5930;DHT22;2990;48.746;9.236;2023-05-23T01:33:13;16.60;1.00
5930;DHT22;2990;48.746;9.236;2023-05-23T01:35:41;16.60;1.00
5930;DHT22;2990;48.746;9.236;2023-05-23T01:38:08;16.60;1.00
5930;DHT22;2990;48.746;9.236;2023-05-23T01:40:33;16.60;1.00
5930;DHT22;2990;48.746;9.236;2023-05-23T01:42:59;16.60;1.00
5930;DHT22;2990;48.746;9.236;2023-05-23T01:45:27;16.60;1.00
5930;DHT22;2990;48.746;9.236;2023-05-23T01:47:53;16.50;1.00
5930;DHT22;2990;48.746;9.236;2023-05-23T01:50:20;16.60;1.00
5930;DHT22;2990;48.746;9.236;2023-05-23T01:52:46;16.50;1.00
5930;DHT22;2990;48.746;9.236;2023-05-23T01:55:13;16.70;1.00
5930;DHT22;2990;48.746;9.236;2023-05-23T01:57:43;16.60;1.00
5930;DHT22;2990;48.746;9.236;2023-05-23T02:00:13;16.60;1.00
5930;DHT22;2990;48.746;9.236;2023-05-23T02:02:39;16.60;1.00
5930;DHT22;2990;48.746;9.236;2023-05-23T02:05:05;16.60;1.00
5930;DHT22;2990;48.746;9.236;2023-05-23T02:07:31;16.50;1.00
5930;DHT22;2990;48.746;9.236;2023-05-23T02:09:57;16.50;1.00
5930;DHT22;2990;48.746;9.236;2023-05-23T02:12:22;16.50;1.00
5930;DHT22;2990;48.746;9.236;2023-05-23T02:14:48;16.40;1.00
5930;DHT22;2990;48.746;9.236;2023-05-23T02:17:17;16.40;1.00
5930;DHT22;2990;48.746;9.236;2023-05-23T02:19:42;16.40;1.00
5930;DHT22;2990;48.746;9.236;2023-05-23T02:22:08;16.40;1.00
5930;DHT22;2990;48.746;9.236;2023-05-23T02:24:34;16.40;1.00
5930;DHT22;2990;48.746;9.236;2023-05-23T02:26:59;16.40;1.00
5930;DHT22;2990;48.746;9.236;2023-05-23T02:29:25;16.40;1.00
5930;DHT22;2990;48.746;9.236;2023-05-23T02:31:50;16.30;1.00
5930;DHT22;2990;48.746;9.236;2023-05-23T02:34:16;16.30;1.00
5930;DHT22;2990;48.746;9.236;2023-05-23T02:36:41;16.30;10.20
5930;DHT22;2990;48.746;9.236;2023-05-23T02:39:07;16.10;29.40
5930;DHT22;2990;48.746;9.236;2023-05-23T02:41:33;16.30;37.60
5930;DHT22;2990;48.746;9.236;2023-05-23T02:43:58;16.20;48.70
5930;DHT22;2990;48.746;9.236;2023-05-23T02:46:24;16.20;44.30
5930;DHT22;2990;48.746;9.236;2023-05-23T02:48:50;16.10;69.80
5930;DHT22;2990;48.746;9.236;2023-05-23T02:51:15;16.10;54.10
5930;DHT22;2990;48.746;9.236;2023-05-23T02:53:41;16.00;56.10
5930;DHT22;2990;48.746;9.236;2023-05-23T02:56:07;16.10;67.50
5930;DHT22;2990;48.746;9.236;2023-05-23T02:58:33;16.10;87.30
5930;DHT22;2990;48.746;9.236;2023-05-23T03:01:01;16.10;89.70
5930;DHT22;2990;48.746;9.236;2023-05-23T03:03:27;16.10;91.20
5930;DHT22;2990;48.746;9.236;2023-05-23T03:05:53;16.10;92.70
5930;DHT22;2990;48.746;9.236;2023-05-23T03:08:19;16.20;90.70
5930;DHT22;2990;48.746;9.236;2023-05-23T03:10:44;16.10;89.90
5930;DHT22;2990;48.746;9.236;2023-05-23T03:13:10;16.10;94.10
5930;DHT22;2990;48.746;9.236;2023-05-23T03:15:36;16.00;82.80
5930;DHT22;2990;48.746;9.236;2023-05-23T03:18:01;16.10;99.90
5930;DHT22;2990;48.746;9.236;2023-05-23T03:20:27;16.10;99.90
5930;DHT22;2990;48.746;9.236;2023-05-23T03:22:52;16.10;99.90
5930;DHT22;2990;48.746;9.236;2023-05-23T03:25:18;16.00;99.90
5930;DHT22;2990;48.746;9.236;2023-05-23T03:27:43;16.10;99.90
5930;DHT22;2990;48.746;9.236;2023-05-23T03:30:09;16.10;99.90
5930;DHT22;2990;48.746;9.236;2023-05-23T03:32:35;16.10;98.30
5930;DHT22;2990;48.746;9.236;2023-05-23T03:35:01;16.10;99.90
5930;DHT22;2990;48.746;9.236;2023-05-23T03:37:27;16.10;99.90
5930;DHT22;2990;48.746;9.236;2023-05-23T03:39:52;16.10;99.90
5930;DHT22;2990;48.746;9.236;2023-05-23T03:42:18;16.10;99.90
5930;DHT22;2990;48.746;9.236;2023-05-23T03:44:44;16.30;94.10
5930;DHT22;2990;48.746;9.236;2023-05-23T03:47:10;16.10;92.70
5930;DHT22;2990;48.746;9.236;2023-05-23T03:49:36;16.10;91.50
5930;DHT22;2990;48.746;9.236;2023-05-23T03:52:01;16.00;85.50
5930;DHT22;2990;48.746;9.236;2023-05-23T03:54:27;16.10;80.90
5930;DHT22;2990;48.746;9.236;2023-05-23T03:56:52;16.40;66.40
5930;DHT22;2990;48.746;9.236;2023-05-23T03:59:18;16.20;54.30
5930;DHT22;2990;48.746;9.236;2023-05-23T04:01:44;16.30;56.90
5930;DHT22;2990;48.746;9.236;2023-05-23T04:04:09;16.30;54.20
5930;DHT22;2990;48.746;9.236;2023-05-23T04:06:35;16.20;49.30
5930;DHT22;2990;48.746;9.236;2023-05-23T04:09:01;16.10;26.10
5930;DHT22;2990;48.746;9.236;2023-05-23T04:11:27;16.30;31.80
5930;DHT22;2990;48.746;9.236;2023-05-23T04:13:53;16.10;39.40
5930;DHT22;2990;48.746;9.236;2023-05-23T04:16:18;16.10;52.40
5930;DHT22;2990;48.746;9.236;2023-05-23T04:18:44;16.10;60.20
5930;DHT22;2990;48.746;9.236;2023-05-23T04:21:11;16.10;52.50
5930;DHT22;2990;48.746;9.236;2023-05-23T04:23:37;16.20;52.00
5930;DHT22;2990;48.746;9.236;2023-05-23T04:26:03;16.20;32.10
5930;DHT22;2990;48.746;9.236;2023-05-23T04:28:30;16.30;38.80
5930;DHT22;2990;48.746;9.236;2023-05-23T04:30:56;16.20;14.60
5930;DHT22;2990;48.746;9.236;2023-05-23T04:33:23;16.20;7.70
5930;DHT22;2990;48.746;9.236;2023-05-23T04:35:48;16.20;12.90
5930;DHT22;2990;48.746;9.236;2023-05-23T04:38:14;16.20;13.40
5930;DHT22;2990;48.746;9.236;2023-05-23T04:40:39;16.30;17.30
5930;DHT22;2990;48.746;9.236;2023-05-23T04:43:13;16.20;25.00
5930;DHT22;2990;48.746;9.236;2023-05-23T04:45:51;16.20;32.20
5930;DHT22;2990;48.746;9.236;2023-05-23T04:48:28;16.20;32.70
5930;DHT22;2990;48.746;9.236;2023-05-23T04:50:54;16.10;21.60
5930;DHT22;2990;48.746;9.236;2023-05-23T04:53:21;16.20;20.50
5930;DHT22;2990;48.746;9.236;2023-05-23T04:55:46;16.20;17.40
5930;DHT22;2990;48.746;9.236;2023-05-23T04:58:12;16.20;25.30
5930;DHT22;2990;48.746;9.236;2023-05-23T05:00:38;16.20;24.00
5930;DHT22;2990;48.746;9.236;2023-05-23T05:03:04;16.20;17.90
5930;DHT22;2990;48.746;9.236;2023-05-23T05:05:29;16.40;28.50
5930;DHT22;2990;48.746;9.236;2023-05-23T05:07:55;16.00;25.80
5930;DHT22;2990;48.746;9.236;2023-05-23T05:10:21;16.20;20.10
5930;DHT22;2990;48.746;9.236;2023-05-23T05:13:13;16.20;33.00
5930;DHT22;2990;48.746;9.236;2023-05-23T05:15:42;16.00;32.00
5930;DHT22;2990;48.746;9.236;2023-05-23T05:18:07;16.20;46.80
5930;DHT22;2990;48.746;9.236;2023-05-23T05:20:33;16.30;57.40
5930;DHT22;2990;48.746;9.236;2023-05-23T05:22:59;16.40;41.70
5930;DHT22;2990;48.746;9.236;2023-05-23T05:25:24;16.30;39.80
5930;DHT22;2990;48.746;9.236;2023-05-23T05:27:51;16.40;10.90
5930;DHT22;2990;48.746;9.236;2023-05-23T05:30:17;16.40;4.90
5930;DHT22;2990;48.746;9.236;2023-05-23T05:33:05;16.10;1.00
5930;DHT22;2990;48.746;9.236;2023-05-23T05:35:34;16.30;1.00
5930;DHT22;2990;48.746;9.236;2023-05-23T05:38:03;16.40;4.50
5930;DHT22;2990;48.746;9.236;2023-05-23T05:40:30;16.40;1.00
5930;DHT22;2990;48.746;9.236;2023-05-23T05:42:56;16.30;1.00
5930;DHT22;2990;48.746;9.236;2023-05-23T05:45:22;16.60;1.00
5930;DHT22;2990;48.746;9.236;2023-05-23T05:47:47;16.40;1.00
5930;DHT22;2990;48.746;9.236;2023-05-23T05:50:13;16.30;1.00
5930;DHT22;2990;48.746;9.236;2023-05-23T05:52:40;16.60;1.00
5930;DHT22;2990;48.746;9.236;2023-05-23T05:55:08;16.40;1.00
5930;DHT22;2990;48.746;9.236;2023-05-23T05:57:41;16.40;1.00
5930;DHT22;2990;48.746;9.236;2023-05-23T06:00:12;16.40;1.00
5930;DHT22;2990;48.746;9.236;2023-05-23T06:02:40;16.50;1.00
5930;DHT22;2990;48.746;9.236;2023-05-23T06:05:08;16.60;1.00
5930;DHT22;2990;48.746;9.236;2023-05-23T06:07:37;16.50;1.00
5930;DHT22;2990;48.746;9.236;2023-05-23T06:10:02;16.60;1.00
5930;DHT22;2990;48.746;9.236;2023-05-23T06:12:28;16.60;1.00
5930;DHT22;2990;48.746;9.236;2023-05-23T06:14:54;16.60;1.00
5930;DHT22;2990;48.746;9.236;2023-05-23T06:17:19;16.70;1.00
5930;DHT22;2990;48.746;9.236;2023-05-23T06:19:45;16.70;1.00
5930;DHT22;2990;48.746;9.236;2023-05-23T06:22:11;16.70;1.00
5930;DHT22;2990;48.746;9.236;2023-05-23T06:24:36;16.70;1.00
5930;DHT22;2990;48.746;9.236;2023-05-23T06:27:02;16.70;1.00
5930;DHT22;2990;48.746;9.236;2023-05-23T06:29:28;16.70;1.00
5930;DHT22;2990;48.746;9.236;2023-05-23T06:31:55;16.80;1.00
5930;DHT22;2990;48.746;9.236;2023-05-23T06:34:21;16.60;1.00
5930;DHT22;2990;48.746;9.236;2023-05-23T06:36:46;16.70;1.00
5930;DHT22;2990;48.746;9.236;2023-05-23T06:39:13;16.70;1.00
5930;DHT22;2990;48.746;9.236;2023-05-23T06:41:39;16.90;1.00
5930;DHT22;2990;48.746;9.236;2023-05-23T06:44:04;16.80;1.00
5930;DHT22;2990;48.746;9.236;2023-05-23T06:46:42;16.70;1.00
5930;DHT22;2990;48.746;9.236;2023-05-23T06:49:37;16.70;1.00
5930;DHT22;2990;48.746;9.236;2023-05-23T06:52:05;16.90;1.00
5930;DHT22;2990;48.746;9.236;2023-05-23T06:54:31;16.80;1.00
5930;DHT22;2990;48.746;9.236;2023-05-23T06:56:56;16.80;1.00
5930;DHT22;2990;48.746;9.236;2023-05-23T06:59:22;17.10;1.00
5930;DHT22;2990;48.746;9.236;2023-05-23T07:01:47;17.00;1.00
5930;DHT22;2990;48.746;9.236;2023-05-23T07:04:13;16.90;1.00
5930;DHT22;2990;48.746;9.236;2023-05-23T07:06:39;16.90;1.00
5930;DHT22;2990;48.746;9.236;2023-05-23T07:09:05;16.90;1.00
5930;DHT22;2990;48.746;9.236;2023-05-23T07:11:30;16.90;1.00
5930;DHT22;2990;48.746;9.236;2023-05-23T07:13:56;16.70;1.00
5930;DHT22;2990;48.746;9.236;2023-05-23T07:16:22;16.70;1.00
5930;DHT22;2990;48.746;9.236;2023-05-23T07:18:47;16.70;1.00
5930;DHT22;2990;48.746;9.236;2023-05-23T07:21:13;16.60;1.00
5930;DHT22;2990;48.746;9.236;2023-05-23T07:23:39;16.30;1.00
5930;DHT22;2990;48.746;9.236;2023-05-23T07:26:05;16.40;1.00
5930;DHT22;2990;48.746;9.236;2023-05-23T07:28:34;16.50;1.00
5930;DHT22;2990;48.746;9.236;2023-05-23T07:30:59;16.40;1.00
5930;DHT22;2990;48.746;9.236;2023-05-23T07:33:25;16.30;1.00
5930;DHT22;2990;48.746;9.236;2023-05-23T07:35:50;16.30;1.00
5930;DHT22;2990;48.746;9.236;2023-05-23T07:38:16;16.20;1.00
5930;DHT22;2990;48.746;9.236;2023-05-23T07:40:41;16.20;1.00
5930;DHT22;2990;48.746;9.236;2023-05-23T07:43:07;16.10;1.00
5930;DHT22;2990;48.746;9.236;2023-05-23T07:45:33;16.10;1.00
5930;DHT22;2990;48.746;9.236;2023-05-23T07:47:58;16.10;1.00
5930;DHT22;2990;48.746;9.236;2023-05-23T07:50:24;16.10;1.00
5930;DHT22;2990;48.746;9.236;2023-05-23T07:52:52;16.10;1.00
5930;DHT22;2990;48.746;9.236;2023-05-23T07:55:17;16.10;1.00
5930;DHT22;2990;48.746;9.236;2023-05-23T07:57:43;16.10;1.00
5930;DHT22;2990;48.746;9.236;2023-05-23T08:00:09;16.10;1.00
5930;DHT22;2990;48.746;9.236;2023-05-23T08:02:34;16.00;1.00
5930;DHT22;2990;48.746;9.236;2023-05-23T08:05:00;15.90;1.00
5930;DHT22;2990;48.746;9.236;2023-05-23T08:07:26;15.80;1.00
5930;DHT22;2990;48.746;9.236;2023-05-23T08:09:51;16.00;1.00
5930;DHT22;2990;48.746;9.236;2023-05-23T08:12:17;15.90;1.00
5930;DHT22;2990;48.746;9.236;2023-05-23T08:14:42;15.80;1.00
5930;DHT22;2990;48.746;9.236;2023-05-23T08:17:09;15.90;1.00
5930;DHT22;2990;48.746;9.236;2023-05-23T08:19:35;15.80;1.00
5930;DHT22;2990;48.746;9.236;2023-05-23T08:22:00;15.80;99.90
5930;DHT22;2990;48.746;9.236;2023-05-23T08:24:26;15.80;99.90
5930;DHT22;2990;48.746;9.236;2023-05-23T08:26:54;15.80;99.90
5930;DHT22;2990;48.746;9.236;2023-05-23T08:29:19;15.80;1.00
5930;DHT22;2990;48.746;9.236;2023-05-23T08:31:45;15.80;1.00
5930;DHT22;2990;48.746;9.236;2023-05-23T08:34:10;15.90;1.00
5930;DHT22;2990;48.746;9.236;2023-05-23T08:36:39;15.70;41.00
5930;DHT22;2990;48.746;9.236;2023-05-23T08:39:04;15.60;1.00
5930;DHT22;2990;48.746;9.236;2023-05-23T08:41:30;15.60;1.00
5930;DHT22;2990;48.746;9.236;2023-05-23T08:43:56;15.60;1.00
5930;DHT22;2990;48.746;9.236;2023-05-23T08:46:22;15.50;1.00
5930;DHT22;2990;48.746;9.236;2023-05-23T08:48:51;15.60;1.00
5930;DHT22;2990;48.746;9.236;2023-05-23T08:51:17;15.50;99.90
5930;DHT22;2990;48.746;9.236;2023-05-23T08:53:45;15.60;99.90
5930;DHT22;2990;48.746;9.236;2023-05-23T08:56:12;15.60;99.90
5930;DHT22;2990;48.746;9.236;2023-05-23T08:58:44;15.70;99.90
5930;DHT22;2990;48.746;9.236;2023-05-23T09:01:13;15.70;99.90
5930;DHT22;2990;48.746;9.236;2023-05-23T09:03:43;15.70;8.40
5930;DHT22;2990;48.746;9.236;2023-05-23T09:06:15;15.80;1.00
5930;DHT22;2990;48.746;9.236;2023-05-23T09:08:43;15.60;99.90
5930;DHT22;2990;48.746;9.236;2023-05-23T09:11:18;15.60;1.00
5930;DHT22;2990;48.746;9.236;2023-05-23T09:13:46;15.90;1.00
5930;DHT22;2990;48.746;9.236;2023-05-23T09:16:26;15.70;1.00
5930;DHT22;2990;48.746;9.236;2023-05-23T09:19:22;15.80;99.90
5930;DHT22;2990;48.746;9.236;2023-05-23T09:21:53;15.70;1.00
5930;DHT22;2990;48.746;9.236;2023-05-23T09:28:05;15.80;1.00
5930;DHT22;2990;48.746;9.236;2023-05-23T09:30:40;16.00;1.00
5930;DHT22;2990;48.746;9.236;2023-05-23T09:33:34;16.10;1.00
5930;DHT22;2990;48.746;9.236;2023-05-23T09:36:42;16.20;99.90
5930;DHT22;2990;48.746;9.236;2023-05-23T09:39:22;16.10;99.90
5930;DHT22;2990;48.746;9.236;2023-05-23T09:41:48;16.10;1.00
5930;DHT22;2990;48.746;9.236;2023-05-23T09:44:14;16.10;1.00
5930;DHT22;2990;48.746;9.236;2023-05-23T09:46:49;16.20;1.00
5930;DHT22;2990;48.746;9.236;2023-05-23T09:49:18;16.30;99.90
5930;DHT22;2990;48.746;9.236;2023-05-23T09:51:55;16.30;1.00
5930;DHT22;2990;48.746;9.236;2023-05-23T09:54:21;16.40;99.90
5930;DHT22;2990;48.746;9.236;2023-05-23T09:56:47;16.60;99.90
5930;DHT22;2990;48.746;9.236;2023-05-23T09:59:15;16.40;1.00
5930;DHT22;2990;48.746;9.236;2023-05-23T10:01:43;16.70;1.00
5930;DHT22;2990;48.746;9.236;2023-05-23T10:04:13;16.80;99.90
5930;DHT22;2990;48.746;9.236;2023-05-23T10:06:52;16.90;1.00
5930;DHT22;2990;48.746;9.236;2023-05-23T10:09:20;16.80;1.00
5930;DHT22;2990;48.746;9.236;2023-05-23T10:14:43;16.90;99.90
5930;DHT22;2990;48.746;9.236;2023-05-23T10:17:17;17.00;1.00
5930;DHT22;2990;48.746;9.236;2023-05-23T10:19:59;17.20;1.00
5930;DHT22;2990;48.746;9.236;2023-05-23T10:22:26;17.00;1.00
5930;DHT22;2990;48.746;9.236;2023-05-23T10:24:52;17.20;1.00
5930;DHT22;2990;48.746;9.236;2023-05-23T10:27:18;17.40;1.00
5930;DHT22;2990;48.746;9.236;2023-05-23T10:29:44;17.40;99.90
5930;DHT22;2990;48.746;9.236;2023-05-23T10:32:11;17.40;53.20
5930;DHT22;2990;48.746;9.236;2023-05-23T10:37:25;18.00;1.00
5930;DHT22;2990;48.746;9.236;2023-05-23T10:43:06;18.30;99.90
5930;DHT22;2990;48.746;9.236;2023-05-23T10:45:50;18.50;99.90
5930;DHT22;2990;48.746;9.236;2023-05-23T10:48:34;18.80;99.90
5930;DHT22;2990;48.746;9.236;2023-05-23T10:51:04;19.00;1.00
5930;DHT22;2990;48.746;9.236;2023-05-23T10:53:35;19.00;1.00
5930;DHT22;2990;48.746;9.236;2023-05-23T10:56:03;18.90;1.00
5930;DHT22;2990;48.746;9.236;2023-05-23T10:58:29;19.00;1.00
5930;DHT22;2990;48.746;9.236;2023-05-23T11:01:01;19.10;1.00
5930;DHT22;2990;48.746;9.236;2023-05-23T11:06:32;19.00;1.00
5930;DHT22;2990;48.746;9.236;2023-05-23T11:17:00;18.70;1.00
5930;DHT22;2990;48.746;9.236;2023-05-23T11:19:39;18.80;1.00
5930;DHT22;2990;48.746;9.236;2023-05-23T11:22:11;18.60;1.00
5930;DHT22;2990;48.746;9.236;2023-05-23T11:24:47;18.60;1.00
5930;DHT22;2990;48.746;9.236;2023-05-23T11:27:32;18.50;1.00
5930;DHT22;2990;48.746;9.236;2023-05-23T11:30:19;18.50;1.00
5930;DHT22;2990;48.746;9.236;2023-05-23T11:32:52;18.50;1.00
5930;DHT22;2990;48.746;9.236;2023-05-23T11:35:20;18.60;1.00
5930;DHT22;2990;48.746;9.236;2023-05-23T11:37:46;18.70;1.00
5930;DHT22;2990;48.746;9.236;2023-05-23T11:40:34;18.70;1.00
5930;DHT22;2990;48.746;9.236;2023-05-23T11:43:05;18.80;1.00
5930;DHT22;2990;48.746;9.236;2023-05-23T11:45:35;18.80;1.00
5930;DHT22;2990;48.746;9.236;2023-05-23T11:48:11;18.90;1.00
5930;DHT22;2990;48.746;9.236;2023-05-23T11:50:53;19.30;1.00
5930;DHT22;2990;48.746;9.236;2023-05-23T11:53:25;19.50;1.00
5930;DHT22;2990;48.746;9.236;2023-05-23T11:55:55;19.80;1.00
5930;DHT22;2990;48.746;9.236;2023-05-23T11:58:28;19.70;1.00
5930;DHT22;2990;48.746;9.236;2023-05-23T12:01:05;19.40;1.00
5930;DHT22;2990;48.746;9.236;2023-05-23T12:03:32;19.10;1.00
5930;DHT22;2990;48.746;9.236;2023-05-23T12:05:58;18.80;1.00
5930;DHT22;2990;48.746;9.236;2023-05-23T12:08:24;18.90;1.00
5930;DHT22;2990;48.746;9.236;2023-05-23T12:10:56;19.10;1.00
5930;DHT22;2990;48.746;9.236;2023-05-23T12:13:24;19.20;1.00
5930;DHT22;2990;48.746;9.236;2023-05-23T12:16:00;19.30;1.00
5930;DHT22;2990;48.746;9.236;2023-05-23T12:18:28;19.50;1.00
5930;DHT22;2990;48.746;9.236;2023-05-23T12:20:54;19.60;99.90
5930;DHT22;2990;48.746;9.236;2023-05-23T12:23:23;19.80;99.90
5930;DHT22;2990;48.746;9.236;2023-05-23T12:25:54;19.80;99.90
5930;DHT22;2990;48.746;9.236;2023-05-23T12:28:32;19.70;99.90
5930;DHT22;2990;48.746;9.236;2023-05-23T12:31:00;19.60;99.90
5930;DHT22;2990;48.746;9.236;2023-05-23T12:33:36;19.80;99.90
5930;DHT22;2990;48.746;9.236;2023-05-23T12:36:12;19.80;99.90
5930;DHT22;2990;48.746;9.236;2023-05-23T12:38:48;20.30;99.90
5930;DHT22;2990;48.746;9.236;2023-05-23T12:41:18;20.30;99.90
5930;DHT22;2990;48.746;9.236;2023-05-23T12:43:53;20.50;99.90
5930;DHT22;2990;48.746;9.236;2023-05-23T12:46:20;20.40;99.90
5930;DHT22;2990;48.746;9.236;2023-05-23T12:48:49;20.30;99.90
5930;DHT22;2990;48.746;9.236;2023-05-23T12:51:15;20.40;99.90
5930;DHT22;2990;48.746;9.236;2023-05-23T12:53:41;20.50;99.90
5930;DHT22;2990;48.746;9.236;2023-05-23T12:56:07;20.80;99.90
5930;DHT22;2990;48.746;9.236;2023-05-23T12:58:36;20.90;99.90
5930;DHT22;2990;48.746;9.236;2023-05-23T13:01:02;20.90;99.90
5930;DHT22;2990;48.746;9.236;2023-05-23T13:03:28;20.90;99.90
5930;DHT22;2990;48.746;9.236;2023-05-23T13:06:05;20.90;99.90
5930;DHT22;2990;48.746;9.236;2023-05-23T13:08:33;21.00;99.90
5930;DHT22;2990;48.746;9.236;2023-05-23T13:10:59;21.00;99.90
5930;DHT22;2990;48.746;9.236;2023-05-23T13:13:27;21.10;99.90
5930;DHT22;2990;48.746;9.236;2023-05-23T13:15:53;21.20;99.90
5930;DHT22;2990;48.746;9.236;2023-05-23T13:18:19;21.30;99.90
5930;DHT22;2990;48.746;9.236;2023-05-23T13:20:45;21.40;99.90
5930;DHT22;2990;48.746;9.236;2023-05-23T13:23:11;21.30;99.90
5930;DHT22;2990;48.746;9.236;2023-05-23T13:25:36;21.10;99.90
5930;DHT22;2990;48.746;9.236;2023-05-23T13:28:02;21.40;99.90
5930;DHT22;2990;48.746;9.236;2023-05-23T13:30:31;21.40;99.90
5930;DHT22;2990;48.746;9.236;2023-05-23T13:32:57;21.40;99.90
5930;DHT22;2990;48.746;9.236;2023-05-23T13:35:22;21.30;99.90
5930;DHT22;2990;48.746;9.236;2023-05-23T13:37:48;21.00;99.90
5930;DHT22;2990;48.746;9.236;2023-05-23T13:40:20;20.60;99.90
5930;DHT22;2990;48.746;9.236;2023-05-23T13:42:47;20.20;99.90
5930;DHT22;2990;48.746;9.236;2023-05-23T13:45:13;19.60;99.90
5930;DHT22;2990;48.746;9.236;2023-05-23T13:47:40;19.50;99.90
5930;DHT22;2990;48.746;9.236;2023-05-23T13:50:06;19.30;99.90
5930;DHT22;2990;48.746;9.236;2023-05-23T13:52:32;19.10;99.90
5930;DHT22;2990;48.746;9.236;2023-05-23T13:54:58;19.00;99.90
5930;DHT22;2990;48.746;9.236;2023-05-23T13:57:27;18.80;99.90
5930;DHT22;2990;48.746;9.236;2023-05-23T13:59:52;18.70;99.90
5930;DHT22;2990;48.746;9.236;2023-05-23T14:02:20;18.60;99.90
5930;DHT22;2990;48.746;9.236;2023-05-23T14:04:47;18.60;99.90
5930;DHT22;2990;48.746;9.236;2023-05-23T14:07:14;18.70;99.90
5930;DHT22;2990;48.746;9.236;2023-05-23T14:09:40;18.60;99.90
5930;DHT22;2990;48.746;9.236;2023-05-23T14:12:06;18.80;99.90
5930;DHT22;2990;48.746;9.236;2023-05-23T14:14:31;18.90;99.90
5930;DHT22;2990;48.746;9.236;2023-05-23T14:16:57;18.90;99.90
5930;DHT22;2990;48.746;9.236;2023-05-23T14:19:23;18.70;99.90
5930;DHT22;2990;48.746;9.236;2023-05-23T14:21:49;19.00;99.90
5930;DHT22;2990;48.746;9.236;2023-05-23T14:24:15;19.10;99.90
5930;DHT22;2990;48.746;9.236;2023-05-23T14:26:41;19.30;99.90
5930;DHT22;2990;48.746;9.236;2023-05-23T14:29:06;19.70;99.90
5930;DHT22;2990;48.746;9.236;2023-05-23T14:31:32;19.60;99.90
5930;DHT22;2990;48.746;9.236;2023-05-23T14:33:57;19.80;99.90
5930;DHT22;2990;48.746;9.236;2023-05-23T14:36:26;20.00;99.90
5930;DHT22;2990;48.746;9.236;2023-05-23T14:38:52;20.20;99.90
5930;DHT22;2990;48.746;9.236;2023-05-23T14:41:18;20.10;99.90
5930;DHT22;2990;48.746;9.236;2023-05-23T14:44:18;20.10;99.90
5930;DHT22;2990;48.746;9.236;2023-05-23T14:46:56;20.10;99.90
5930;DHT22;2990;48.746;9.236;2023-05-23T14:49:21;20.10;99.90
5930;DHT22;2990;48.746;9.236;2023-05-23T14:51:54;20.10;99.90
5930;DHT22;2990;48.746;9.236;2023-05-23T14:54:23;20.10;99.90
5930;DHT22;2990;48.746;9.236;2023-05-23T14:56:51;19.90;99.90
5930;DHT22;2990;48.746;9.236;2023-05-23T14:59:34;20.10;99.90
5930;DHT22;2990;48.746;9.236;2023-05-23T15:02:09;20.50;99.90
5930;DHT22;2990;48.746;9.236;2023-05-23T15:04:35;20.30;99.90
5930;DHT22;2990;48.746;9.236;2023-05-23T15:07:07;20.20;99.90
5930;DHT22;2990;48.746;9.236;2023-05-23T15:09:44;20.00;99.90
5930;DHT22;2990;48.746;9.236;2023-05-23T15:12:14;19.80;99.90
5930;DHT22;2990;48.746;9.236;2023-05-23T15:14:49;19.60;99.90
5930;DHT22;2990;48.746;9.236;2023-05-23T15:17:28;19.40;99.90
5930;DHT22;2990;48.746;9.236;2023-05-23T15:19:56;19.50;99.90
5930;DHT22;2990;48.746;9.236;2023-05-23T15:22:35;19.60;99.90
5930;DHT22;2990;48.746;9.236;2023-05-23T15:25:08;19.90;99.90
5930;DHT22;2990;48.746;9.236;2023-05-23T15:27:36;20.30;99.90
5930;DHT22;2990;48.746;9.236;2023-05-23T15:30:05;20.00;99.90
5930;DHT22;2990;48.746;9.236;2023-05-23T15:32:31;19.80;99.90
5930;DHT22;2990;48.746;9.236;2023-05-23T15:34:56;19.60;99.90
5930;DHT22;2990;48.746;9.236;2023-05-23T15:37:24;19.50;99.90
5930;DHT22;2990;48.746;9.236;2023-05-23T15:39:55;19.20;99.90
5930;DHT22;2990;48.746;9.236;2023-05-23T15:42:24;19.00;99.90
5930;DHT22;2990;48.746;9.236;2023-05-23T15:44:53;18.90;99.90
5930;DHT22;2990;48.746;9.236;2023-05-23T15:47:18;18.80;99.90
5930;DHT22;2990;48.746;9.236;2023-05-23T15:49:53;19.20;99.90
5930;DHT22;2990;48.746;9.236;2023-05-23T15:52:19;19.20;99.90
5930;DHT22;2990;48.746;9.236;2023-05-23T15:54:48;19.20;99.90
5930;DHT22;2990;48.746;9.236;2023-05-23T15:57:21;19.10;99.90
5930;DHT22;2990;48.746;9.236;2023-05-23T15:59:47;19.10;99.90
5930;DHT22;2990;48.746;9.236;2023-05-23T16:02:12;19.10;99.90
5930;DHT22;2990;48.746;9.236;2023-05-23T16:04:40;19.30;99.90
5930;DHT22;2990;48.746;9.236;2023-05-23T16:07:06;19.70;99.90
5930;DHT22;2990;48.746;9.236;2023-05-23T16:09:32;20.00;99.90
5930;DHT22;2990;48.746;9.236;2023-05-23T16:11:59;21.10;99.90
5930;DHT22;2990;48.746;9.236;2023-05-23T16:14:29;22.10;99.90
5930;DHT22;2990;48.746;9.236;2023-05-23T16:16:55;22.10;99.90
5930;DHT22;2990;48.746;9.236;2023-05-23T16:19:21;22.30;99.90
5930;DHT22;2990;48.746;9.236;2023-05-23T16:21:52;22.30;99.90
5930;DHT22;2990;48.746;9.236;2023-05-23T16:24:18;22.20;99.90
5930;DHT22;2990;48.746;9.236;2023-05-23T16:26:43;21.60;99.90
5930;DHT22;2990;48.746;9.236;2023-05-23T16:29:18;20.90;99.90
5930;DHT22;2990;48.746;9.236;2023-05-23T16:31:44;20.30;99.90
5930;DHT22;2990;48.746;9.236;2023-05-23T16:34:17;19.90;99.90
5930;DHT22;2990;48.746;9.236;2023-05-23T16:36:43;19.60;99.90
5930;DHT22;2990;48.746;9.236;2023-05-23T16:39:11;19.50;99.90
5930;DHT22;2990;48.746;9.236;2023-05-23T16:41:37;19.30;99.90
5930;DHT22;2990;48.746;9.236;2023-05-23T16:44:02;19.10;99.90
5930;DHT22;2990;48.746;9.236;2023-05-23T16:46:49;19.00;99.90
5930;DHT22;2990;48.746;9.236;2023-05-23T16:49:14;18.90;99.90